createdAt,value
2019-04-03T00:00:53.795Z,96247.99
2019-04-03T00:03:21.366Z,96253.27
2019-04-03T00:05:48.747Z,96243.27
2019-04-03T00:08:16.049Z,96234.65
2019-04-03T00:10:43.419Z,96237.40
2019-04-03T00:13:11.417Z,96237.54
2019-04-03T00:15:38.228Z,96225.76
2019-04-03T00:18:05.666Z,96234.33
2019-04-03T00:20:33.051Z,96233.77
2019-04-03T00:23:00.458Z,96230.64
2019-04-03T00:25:27.882Z,96230.05
2019-04-03T00:27:55.378Z,96225.49
2019-04-03T00:30:22.908Z,96232.79
2019-04-03T00:32:50.148Z,96219.95
2019-04-03T00:35:17.604Z,96217.38
2019-04-03T00:37:45.088Z,96221.86
2019-04-03T00:40:12.476Z,96207.06
2019-04-03T00:42:39.448Z,96203.80
2019-04-03T00:45:06.379Z,96203.66
2019-04-03T00:47:33.796Z,96204.98
2019-04-03T00:50:01.202Z,96205.23
2019-04-03T00:52:28.681Z,96205.36
2019-04-03T00:54:56.580Z,96185.73
2019-04-03T00:57:22.528Z,96189.34
2019-04-03T00:59:49.496Z,96183.21
2019-04-03T01:02:16.824Z,96173.56
2019-04-03T01:04:43.465Z,96173.81
2019-04-03T01:07:10.536Z,96175.53
2019-04-03T01:09:37.478Z,96175.98
2019-04-03T01:12:04.419Z,96171.00
2019-04-03T01:14:32.122Z,96171.90
2019-04-03T01:16:59.295Z,96156.86
2019-04-03T01:19:26.709Z,96162.48
2019-04-03T01:21:54.107Z,96151.80
2019-04-03T01:24:21.501Z,96158.94
2019-04-03T01:26:48.954Z,96145.92
2019-04-03T01:29:16.343Z,96151.86
2019-04-03T01:31:44.910Z,96140.45
2019-04-03T01:34:11.189Z,96140.75
2019-04-03T01:36:38.620Z,96140.61
2019-04-03T01:39:06.042Z,96137.97
2019-04-03T01:41:33.446Z,96139.52
2019-04-03T01:44:00.981Z,96141.72
2019-04-03T01:46:28.301Z,96133.03
2019-04-03T01:48:56.760Z,96144.46
2019-04-03T01:51:23.126Z,96139.34
2019-04-03T01:53:50.555Z,96136.26
2019-04-03T01:56:17.962Z,96132.81
2019-04-03T01:58:45.373Z,96137.22
2019-04-03T02:01:12.817Z,96137.64
2019-04-03T02:03:41.722Z,96139.85
2019-04-03T02:06:07.629Z,96129.34
2019-04-03T02:08:35.015Z,96120.47
2019-04-03T02:11:02.444Z,96118.23
2019-04-03T02:13:29.849Z,96112.84
2019-04-03T02:15:57.307Z,96122.74
2019-04-03T02:18:25.514Z,96114.55
2019-04-03T02:20:52.183Z,96114.81
2019-04-03T02:23:19.745Z,96114.41
2019-04-03T02:25:47.181Z,96119.17
2019-04-03T02:28:15.242Z,96122.48
2019-04-03T02:30:45.330Z,96116.89
2019-04-03T02:33:10.119Z,96111.77
2019-04-03T02:35:40.347Z,96108.11
2019-04-03T02:38:04.891Z,96119.09
2019-04-03T02:40:33.151Z,96115.94
2019-04-03T02:42:59.726Z,96110.91
2019-04-03T02:45:27.153Z,96106.80
2019-04-03T02:47:54.555Z,96106.83
2019-04-03T02:50:22.747Z,96103.41
2019-04-03T02:52:50.139Z,96093.57
2019-04-03T02:55:17.721Z,96084.34
2019-04-03T02:57:48.463Z,96086.77
2019-04-03T03:00:12.667Z,96075.31
2019-04-03T03:02:39.850Z,96069.56
2019-04-03T03:05:07.230Z,96064.47
2019-04-03T03:07:36.323Z,96061.44
2019-04-03T03:10:02.052Z,96066.94
2019-04-03T03:12:29.479Z,96059.41
2019-04-03T03:14:57.106Z,96060.42
2019-04-03T03:17:24.297Z,96065.14
2019-04-03T03:19:51.875Z,96061.47
2019-04-03T03:22:19.289Z,96066.71
2019-04-03T03:24:46.706Z,96061.61
2019-04-03T03:27:14.113Z,96062.51
2019-04-03T03:29:41.563Z,96055.31
2019-04-03T03:32:17.662Z,96059.74
2019-04-03T03:34:51.570Z,96056.56
2019-04-03T03:37:04.044Z,96047.99
2019-04-03T03:39:31.214Z,96041.96
2019-04-03T03:41:59.176Z,96040.65
2019-04-03T03:44:26.023Z,96028.78
2019-04-03T03:46:53.436Z,96026.38
2019-04-03T03:49:21.096Z,96020.15
2019-04-03T03:51:48.277Z,96015.66
2019-04-03T03:54:18.369Z,96025.11
2019-04-03T03:56:43.095Z,96013.77
2019-04-03T03:59:10.491Z,96010.50
2019-04-03T04:01:37.921Z,96012.56
2019-04-03T04:04:05.759Z,96011.59
2019-04-03T04:06:35.667Z,96004.41
2019-04-03T04:09:00.437Z,96007.95
2019-04-03T04:11:28.102Z,95994.14
2019-04-03T04:13:55.259Z,95983.39
2019-04-03T04:16:22.683Z,95989.84
2019-04-03T04:18:50.265Z,95989.57
2019-04-03T04:21:17.722Z,95988.17
2019-04-03T04:23:44.983Z,95984.81
2019-04-03T04:26:13.535Z,95982.90
2019-04-03T04:28:41.078Z,95977.05
2019-04-03T04:31:08.594Z,95980.12
2019-04-03T04:33:35.836Z,95983.30
2019-04-03T04:36:03.231Z,95981.53
2019-04-03T04:38:31.441Z,95972.06
2019-04-03T04:41:01.289Z,95973.36
2019-04-03T04:43:26.469Z,95975.24
2019-04-03T04:45:53.822Z,95977.95
2019-04-03T04:48:21.426Z,95985.59
2019-04-03T04:50:48.652Z,95984.19
2019-04-03T04:53:16.085Z,95981.08
2019-04-03T04:55:43.547Z,95971.09
2019-04-03T04:58:11.739Z,95967.66
2019-04-03T05:00:38.489Z,95964.80
2019-04-03T05:03:05.920Z,95960.56
2019-04-03T05:05:33.730Z,95958.36
2019-04-03T05:08:01.951Z,95954.45
2019-04-03T05:10:28.610Z,95949.84
2019-04-03T05:12:56.083Z,95946.41
2019-04-03T05:15:24.095Z,95950.02
2019-04-03T05:17:51.035Z,95948.55
2019-04-03T05:20:20.204Z,95945.52
2019-04-03T05:22:46.982Z,95946.70
2019-04-03T05:25:14.351Z,95946.14
2019-04-03T05:27:41.756Z,95940.97
2019-04-03T05:30:09.211Z,95940.41
2019-04-03T05:32:36.623Z,95943.91
2019-04-03T05:35:04.030Z,95945.39
2019-04-03T05:37:31.541Z,95944.78
2019-04-03T05:39:58.993Z,95941.82
2019-04-03T05:42:28.427Z,95940.53
2019-04-03T05:44:53.896Z,95944.34
2019-04-03T05:47:21.283Z,95928.73
2019-04-03T05:49:50.692Z,95927.91
2019-04-03T05:52:16.094Z,95928.39
2019-04-03T05:54:44.593Z,95919.33
2019-04-03T05:57:13.363Z,95914.14
2019-04-03T05:59:38.592Z,95908.84
2019-04-03T06:02:14.969Z,95913.05
2019-04-03T06:04:33.667Z,95906.08
2019-04-03T06:07:01.036Z,95916.98
2019-04-03T06:09:28.419Z,95917.78
2019-04-03T06:11:55.971Z,95910.42
2019-04-03T06:14:23.917Z,95903.16
2019-04-03T06:16:50.850Z,95896.84
2019-04-03T06:19:18.304Z,95898.95
2019-04-03T06:21:46.515Z,95900.64
2019-04-03T06:24:13.161Z,95899.52
2019-04-03T06:26:40.773Z,95892.89
2019-04-03T06:29:08.238Z,95880.74
2019-04-03T06:31:35.453Z,95880.98
2019-04-03T06:34:02.838Z,95877.98
2019-04-03T06:36:30.400Z,95876.36
2019-04-03T06:38:58.292Z,95867.14
2019-04-03T06:41:25.682Z,95869.63
2019-04-03T06:43:54.608Z,95873.63
2019-04-03T06:46:21.790Z,95861.19
2019-04-03T06:48:49.367Z,95863.16
2019-04-03T06:51:16.900Z,95862.00
2019-04-03T06:53:44.061Z,95866.47
2019-04-03T06:56:11.557Z,95860.94
2019-04-03T06:58:40.157Z,95851.64
2019-04-03T07:01:06.525Z,95846.87
2019-04-03T07:03:34.408Z,95844.98
2019-04-03T07:06:01.526Z,95846.19
2019-04-03T07:08:34.610Z,95851.30
2019-04-03T07:10:56.363Z,95841.53
2019-04-03T07:13:23.763Z,95834.88
2019-04-03T07:15:51.183Z,95841.55
2019-04-03T07:18:18.599Z,95830.64
2019-04-03T07:20:46.286Z,95837.38
2019-04-03T07:23:13.768Z,95828.23
2019-04-03T07:25:41.112Z,95828.47
2019-04-03T07:28:09.431Z,95825.77
2019-04-03T07:30:35.935Z,95819.77
2019-04-03T07:33:05.311Z,95815.82
2019-04-03T07:35:30.793Z,95824.58
2019-04-03T07:37:59.056Z,95806.44
2019-04-03T07:40:27.597Z,95806.42
2019-04-03T07:42:56.293Z,95800.13
2019-04-03T07:45:21.898Z,95795.06
2019-04-03T07:47:48.895Z,95784.13
2019-04-03T07:50:15.817Z,95776.01
2019-04-03T07:52:43.355Z,95783.55
2019-04-03T07:55:10.769Z,95773.84
2019-04-03T07:57:40.415Z,95775.84
2019-04-03T08:00:07.109Z,95776.70
2019-04-03T08:02:34.456Z,95768.41
2019-04-03T08:05:01.375Z,95769.68
2019-04-03T08:07:28.712Z,95764.09
2019-04-03T08:09:57.705Z,95752.08
2019-04-03T08:12:23.583Z,95746.42
2019-04-03T08:14:51.128Z,95744.27
2019-04-03T08:17:19.382Z,95741.24
2019-04-03T08:19:46.079Z,95732.86
2019-04-03T08:22:13.621Z,95729.00
2019-04-03T08:24:41.108Z,95733.39
2019-04-03T08:27:08.790Z,95727.59
2019-04-03T08:29:38.214Z,95719.23
2019-04-03T08:32:03.888Z,95724.45
2019-04-03T08:34:32.194Z,95717.70
2019-04-03T08:37:01.391Z,95707.35
2019-04-03T08:39:26.269Z,95707.25
2019-04-03T08:41:55.887Z,95698.95
2019-04-03T08:44:21.347Z,95696.97
2019-04-03T08:46:48.698Z,95695.56
2019-04-03T08:49:16.248Z,95689.66
2019-04-03T08:51:44.727Z,95682.42
2019-04-03T08:54:12.154Z,95672.14
2019-04-03T08:56:39.894Z,95670.47
2019-04-03T08:59:07.039Z,95668.80
2019-04-03T09:01:36.619Z,95663.42
2019-04-03T09:04:01.678Z,95661.70
2019-04-03T09:06:29.375Z,95661.27
2019-04-03T09:08:58.186Z,95661.48
2019-04-03T09:11:24.124Z,95664.66
2019-04-03T09:13:52.748Z,95670.17
2019-04-03T09:16:19.168Z,95664.76
2019-04-03T09:18:46.606Z,95673.98
2019-04-03T09:21:15.203Z,95667.39
2019-04-03T09:23:41.510Z,95672.94
2019-04-03T09:26:08.943Z,95686.58
2019-04-03T09:28:36.381Z,95690.52
2019-04-03T09:31:03.810Z,95676.14
2019-04-03T09:33:31.269Z,95672.47
2019-04-03T09:35:59.854Z,95671.02
2019-04-03T09:38:26.406Z,95673.81
2019-04-03T09:40:53.872Z,95683.09
2019-04-03T09:43:22.279Z,95658.46
2019-04-03T09:45:48.603Z,95668.50
2019-04-03T09:48:16.428Z,95676.41
2019-04-03T09:50:45.367Z,95663.99
2019-04-03T09:53:11.519Z,95681.42
2019-04-03T09:55:38.764Z,95678.79
2019-04-03T09:58:06.139Z,95685.28
2019-04-03T10:00:33.690Z,95682.38
2019-04-03T10:03:01.137Z,95686.63
2019-04-03T10:05:29.029Z,95698.69
2019-04-03T10:07:56.140Z,95692.58
2019-04-03T10:10:25.674Z,95698.84
2019-04-03T10:12:53.631Z,95698.74
2019-04-03T10:15:19.118Z,95699.70
2019-04-03T10:17:46.467Z,95691.90
2019-04-03T10:20:16.486Z,95687.23
2019-04-03T10:22:42.922Z,95693.93
2019-04-03T10:25:10.437Z,95694.47
2019-04-03T10:27:37.892Z,95700.52
2019-04-03T10:30:06.345Z,95704.30
2019-04-03T10:32:33.752Z,95707.34
2019-04-03T10:35:01.166Z,95704.75
2019-04-03T10:37:28.760Z,95704.95
2019-04-03T10:39:56.254Z,95700.72
2019-04-03T10:42:23.726Z,95692.93
2019-04-03T10:44:51.310Z,95678.30
2019-04-03T10:47:20.936Z,95669.63
2019-04-03T10:49:46.660Z,95662.34
2019-04-03T10:52:14.453Z,95665.97
2019-04-03T10:54:41.643Z,95654.80
2019-04-03T10:57:09.706Z,95659.77
2019-04-03T10:59:37.097Z,95666.89
2019-04-03T11:02:04.531Z,95682.95
2019-04-03T11:04:32.265Z,95690.84
2019-04-03T11:07:00.101Z,95691.59
2019-04-03T11:09:27.280Z,95696.79
2019-04-03T11:11:54.723Z,95692.91
2019-04-03T11:14:22.887Z,95684.16
2019-04-03T11:16:50.495Z,95693.80
2019-04-03T11:19:19.651Z,95688.15
2019-04-03T11:21:45.571Z,95692.15
2019-04-03T11:24:12.879Z,95697.55
2019-04-03T11:26:40.374Z,95692.59
2019-04-03T11:29:10.004Z,95698.08
2019-04-03T11:31:41.201Z,95711.70
2019-04-03T11:34:02.743Z,95706.66
2019-04-03T11:36:30.808Z,95718.66
2019-04-03T11:39:08.927Z,95720.36
2019-04-03T11:41:25.074Z,95739.55
2019-04-03T11:43:52.515Z,95762.80
2019-04-03T11:46:19.930Z,95759.19
2019-04-03T11:48:48.686Z,95756.73
2019-04-03T11:51:15.463Z,95777.93
2019-04-03T11:53:45.221Z,95776.80
2019-04-03T11:56:12.378Z,95790.02
2019-04-03T11:58:37.860Z,95787.23
2019-04-03T12:01:05.403Z,95785.59
2019-04-03T12:03:32.681Z,95786.10
2019-04-03T12:06:00.253Z,95781.70
2019-04-03T12:08:28.897Z,95788.89
2019-04-03T12:10:55.086Z,95784.52
2019-04-03T12:13:22.839Z,95777.86
2019-04-03T12:15:52.100Z,95766.20
2019-04-03T12:18:17.336Z,95773.46
2019-04-03T12:20:45.599Z,95776.65
2019-04-03T12:23:12.134Z,95770.95
2019-04-03T12:25:40.648Z,95779.58
2019-04-03T12:28:07.665Z,95791.40
2019-04-03T12:30:35.086Z,95796.17
2019-04-03T12:33:02.502Z,95799.51
2019-04-03T12:35:29.959Z,95800.02
2019-04-03T12:37:57.407Z,95819.98
2019-04-03T12:40:24.804Z,95821.38
2019-04-03T12:42:52.254Z,95818.77
2019-04-03T12:45:19.657Z,95837.36
2019-04-03T12:47:47.051Z,95844.75
2019-04-03T12:50:14.562Z,95847.83
2019-04-03T12:52:44.422Z,95849.52
2019-04-03T12:55:09.700Z,95850.17
2019-04-03T12:57:39.223Z,95846.55
2019-04-03T13:00:07.409Z,95847.87
2019-04-03T13:02:34.740Z,95837.48
2019-04-03T13:05:05.041Z,95840.94
2019-04-03T13:07:29.671Z,95848.32
2019-04-03T13:09:57.080Z,95845.34
2019-04-03T13:12:27.150Z,95845.28
2019-04-03T13:14:51.953Z,95847.54
2019-04-03T13:17:19.368Z,95854.28
2019-04-03T13:19:46.832Z,95861.25
2019-04-03T13:22:17.635Z,95852.72
2019-04-03T13:24:42.199Z,95848.70
2019-04-03T13:27:09.467Z,95858.56
2019-04-03T13:29:39.200Z,95865.23
2019-04-03T13:32:04.339Z,95865.09
2019-04-03T13:34:32.610Z,95856.25
2019-04-03T13:36:59.293Z,95849.06
2019-04-03T13:39:26.734Z,95851.73
2019-04-03T13:41:54.207Z,95848.30
2019-04-03T13:44:21.634Z,95831.53
2019-04-03T13:46:49.033Z,95839.40
2019-04-03T13:49:18.061Z,95834.66
2019-04-03T13:51:44.223Z,95836.49
2019-04-03T13:54:11.543Z,95841.81
2019-04-03T13:56:42.075Z,95856.35
2019-04-03T13:59:06.377Z,95861.66
2019-04-03T14:01:33.826Z,95871.61
2019-04-03T14:04:01.571Z,95866.56
2019-04-03T14:06:28.798Z,95869.55
2019-04-03T14:08:56.437Z,95856.88
2019-04-03T14:11:24.293Z,95858.78
2019-04-03T14:13:51.614Z,95855.08
2019-04-03T14:16:22.412Z,95858.73
2019-04-03T14:18:46.235Z,95857.34
2019-04-03T14:21:14.066Z,95861.69
2019-04-03T14:23:41.224Z,95858.23
2019-04-03T14:26:10.793Z,95864.39
2019-04-03T14:28:35.985Z,95867.19
2019-04-03T14:31:05.043Z,95868.76
2019-04-03T14:33:41.760Z,95883.05
2019-04-03T14:35:58.250Z,95876.78
2019-04-03T14:38:27.729Z,95880.86
2019-04-03T14:40:53.154Z,95876.56
2019-04-03T14:43:22.100Z,95884.80
2019-04-03T14:45:48.358Z,95880.16
2019-04-03T14:48:15.440Z,95877.11
2019-04-03T14:50:43.153Z,95875.02
2019-04-03T14:53:10.611Z,95870.06
2019-04-03T14:55:47.227Z,95871.59
2019-04-03T14:58:06.033Z,95866.89
2019-04-03T15:00:33.434Z,95866.32
2019-04-03T15:03:00.814Z,95867.17
2019-04-03T15:05:28.662Z,95872.09
2019-04-03T15:07:56.058Z,95870.32
2019-04-03T15:10:23.199Z,95865.30
2019-04-03T15:12:50.974Z,95866.59
2019-04-03T15:15:18.179Z,95875.31
2019-04-03T15:17:45.642Z,95876.52
2019-04-03T15:20:13.295Z,95879.27
2019-04-03T15:22:41.781Z,95882.45
2019-04-03T15:25:09.614Z,95883.02
2019-04-03T15:27:37.069Z,95889.98
2019-04-03T15:30:04.139Z,95887.88
2019-04-03T15:32:32.001Z,95893.22
2019-04-03T15:34:59.742Z,95897.05
2019-04-03T15:37:26.507Z,95898.28
2019-04-03T15:39:57.565Z,95886.47
2019-04-03T15:42:21.988Z,95881.15
2019-04-03T15:44:51.179Z,95872.73
2019-04-03T15:47:18.879Z,95867.78
2019-04-03T15:49:44.409Z,95859.14
2019-04-03T15:52:12.219Z,95851.99
2019-04-03T15:54:39.709Z,95847.14
2019-04-03T15:57:06.774Z,95842.60
2019-04-03T15:59:34.242Z,95832.54
2019-04-03T16:02:02.006Z,95830.97
2019-04-03T16:04:29.087Z,95828.12
2019-04-03T16:06:56.606Z,95821.22
2019-04-03T16:09:24.465Z,95820.46
2019-04-03T16:11:51.953Z,95826.89
2019-04-03T16:14:20.433Z,95830.48
2019-04-03T16:16:46.387Z,95820.36
2019-04-03T16:19:13.989Z,95819.56
2019-04-03T16:21:41.456Z,95819.66
2019-04-03T16:24:12.012Z,95811.43
2019-04-03T16:26:36.252Z,95806.91
2019-04-03T16:29:04.089Z,95810.37
2019-04-03T16:31:31.547Z,95814.91
2019-04-03T16:33:58.462Z,95823.59
2019-04-03T16:36:25.963Z,95825.59
2019-04-03T16:38:53.867Z,95825.73
2019-04-03T16:41:21.215Z,95829.31
2019-04-03T16:43:48.186Z,95822.00
2019-04-03T16:46:15.702Z,95820.34
2019-04-03T16:48:43.307Z,95807.86
2019-04-03T16:51:10.539Z,95812.19
2019-04-03T16:53:38.549Z,95812.41
2019-04-03T16:56:06.452Z,95815.89
2019-04-03T16:58:33.396Z,95817.41
2019-04-03T17:01:00.540Z,95807.97
2019-04-03T17:03:31.751Z,95805.85
2019-04-03T17:05:55.356Z,95796.03
2019-04-03T17:08:23.696Z,95786.48
2019-04-03T17:10:50.212Z,95788.71
2019-04-03T17:13:18.875Z,95783.80
2019-04-03T17:15:45.356Z,95790.17
2019-04-03T17:18:12.594Z,95792.70
2019-04-03T17:20:40.369Z,95807.08
2019-04-03T17:23:07.786Z,95805.35
2019-04-03T17:25:45.867Z,95799.72
2019-04-03T17:28:07.584Z,95800.66
2019-04-03T17:30:29.821Z,95800.69
2019-04-03T17:32:57.528Z,95800.03
2019-04-03T17:35:24.705Z,95787.38
2019-04-03T17:37:52.115Z,95788.15
2019-04-03T17:40:20.033Z,95788.46
2019-04-03T17:42:47.455Z,95790.77
2019-04-03T17:45:16.330Z,95776.97
2019-04-03T17:47:42.318Z,95771.72
2019-04-03T17:50:09.815Z,95775.22
2019-04-03T17:52:37.401Z,95771.53
2019-04-03T17:55:05.617Z,95763.27
2019-04-03T17:57:33.051Z,95761.73
2019-04-03T18:00:00.450Z,95749.80
2019-04-03T18:02:29.596Z,95749.23
2019-04-03T18:04:55.315Z,95752.12
2019-04-03T18:07:22.728Z,95748.03
2019-04-03T18:09:50.120Z,95751.52
2019-04-03T18:12:21.147Z,95754.81
2019-04-03T18:14:44.958Z,95749.95
2019-04-03T18:17:12.356Z,95744.77
2019-04-03T18:19:41.521Z,95737.16
2019-04-03T18:22:07.190Z,95741.55
2019-04-03T18:24:34.635Z,95752.34
2019-04-03T18:27:02.593Z,95746.73
2019-04-03T18:29:29.552Z,95752.86
2019-04-03T18:31:56.939Z,95755.78
2019-04-03T18:34:24.335Z,95761.72
2019-04-03T18:36:51.723Z,95766.89
2019-04-03T18:39:19.107Z,95769.91
2019-04-03T18:41:47.810Z,95770.70
2019-04-03T18:44:21.979Z,95776.35
2019-04-03T18:46:41.363Z,95782.70
2019-04-03T18:49:08.837Z,95777.70
2019-04-03T18:51:36.826Z,95775.43
2019-04-03T18:54:03.643Z,95779.80
2019-04-03T18:56:32.175Z,95772.14
2019-04-03T18:58:58.604Z,95772.55
2019-04-03T19:01:26.018Z,95770.07
2019-04-03T19:03:53.496Z,95777.67
2019-04-03T19:06:21.038Z,95775.82
2019-04-03T19:08:50.140Z,95784.29
2019-04-03T19:11:17.002Z,95792.27
2019-04-03T19:13:45.160Z,95794.27
2019-04-03T19:16:11.963Z,95790.35
2019-04-03T19:18:39.356Z,95792.02
2019-04-03T19:21:06.787Z,95792.20
2019-04-03T19:23:34.543Z,95801.73
2019-04-03T19:26:02.449Z,95803.97
2019-04-03T19:28:29.986Z,95791.53
2019-04-03T19:30:57.604Z,95781.57
2019-04-03T19:33:25.213Z,95787.06
2019-04-03T19:35:52.804Z,95779.63
2019-04-03T19:38:20.455Z,95791.77
2019-04-03T19:40:48.378Z,95788.22
2019-04-03T19:43:15.804Z,95782.70
2019-04-03T19:45:46.071Z,95781.73
2019-04-03T19:48:14.324Z,95775.20
2019-04-03T19:50:41.823Z,95764.42
2019-04-03T19:53:09.285Z,95756.94
2019-04-03T19:55:36.720Z,95763.21
2019-04-03T19:58:04.137Z,95759.56
2019-04-03T20:00:33.088Z,95755.47
2019-04-03T20:02:59.081Z,95765.17
2019-04-03T20:05:26.518Z,95755.89
2019-04-03T20:07:53.920Z,95762.94
2019-04-03T20:10:21.377Z,95761.02
2019-04-03T20:12:48.841Z,95766.28
2019-04-03T20:15:16.273Z,95765.94
2019-04-03T20:17:43.672Z,95767.03
2019-04-03T20:20:11.066Z,95764.83
2019-04-03T20:22:42.101Z,95766.61
2019-04-03T20:25:06.100Z,95757.49
2019-04-03T20:27:33.727Z,95775.77
2019-04-03T20:30:01.442Z,95778.59
2019-04-03T20:32:28.546Z,95780.75
2019-04-03T20:34:55.939Z,95775.03
2019-04-03T20:37:25.748Z,95769.52
2019-04-03T20:39:50.848Z,95759.89
2019-04-03T20:42:18.277Z,95757.11
2019-04-03T20:44:47.970Z,95750.96
2019-04-03T20:47:13.111Z,95744.32
2019-04-03T20:49:43.516Z,95736.81
2019-04-03T20:52:12.110Z,95744.92
2019-04-03T20:54:39.560Z,95740.65
2019-04-03T20:57:07.097Z,95731.93
2019-04-03T20:59:34.510Z,95718.63
2019-04-03T21:02:01.932Z,95723.73
2019-04-03T21:04:29.374Z,95738.41
2019-04-03T21:06:56.837Z,95742.84
2019-04-03T21:09:24.329Z,95740.83
2019-04-03T21:11:51.770Z,95731.44
2019-04-03T21:14:19.147Z,95734.64
2019-04-03T21:16:48.065Z,95726.31
2019-04-03T21:19:14.288Z,95710.05
2019-04-03T21:21:41.669Z,95710.80
2019-04-03T21:24:09.083Z,95710.90
2019-04-03T21:26:38.309Z,95720.58
2019-04-03T21:29:03.994Z,95721.48
2019-04-03T21:31:31.398Z,95727.52
2019-04-03T21:34:01.571Z,95719.13
2019-04-03T21:36:26.244Z,95705.78
2019-04-03T21:38:53.691Z,95705.06
2019-04-03T21:41:21.370Z,95715.94
2019-04-03T21:43:48.515Z,95714.72
2019-04-03T21:46:15.939Z,95702.83
2019-04-03T21:48:44.782Z,95703.94
2019-04-03T21:51:10.783Z,95710.53
2019-04-03T21:53:38.180Z,95710.06
2019-04-03T21:56:05.604Z,95723.91
2019-04-03T21:58:33.020Z,95724.05
2019-04-03T22:01:14.494Z,95707.88
2019-04-03T22:03:39.666Z,95687.81
2019-04-03T22:06:07.065Z,95677.05
2019-04-03T22:08:34.470Z,95688.84
2019-04-03T22:11:03.860Z,95686.86
2019-04-03T22:13:29.264Z,95695.41
2019-04-03T22:15:56.773Z,95688.56
2019-04-03T22:18:24.356Z,95697.08
2019-04-03T22:20:51.595Z,95691.48
2019-04-03T22:23:18.990Z,95685.37
2019-04-03T22:25:47.173Z,95677.68
2019-04-03T22:28:14.554Z,95679.77
2019-04-03T22:30:42.063Z,95682.50
2019-04-03T22:33:09.451Z,95683.86
2019-04-03T22:35:36.884Z,95674.46
2019-04-03T22:38:05.528Z,95664.97
2019-04-03T22:40:31.691Z,95656.45
2019-04-03T22:42:59.134Z,95646.98
2019-04-03T22:45:26.574Z,95635.59
2019-04-03T22:47:54.280Z,95631.16
2019-04-03T22:50:21.371Z,95623.19
2019-04-03T22:52:48.983Z,95619.69
2019-04-03T22:55:16.384Z,95601.16
2019-04-03T22:57:44.936Z,95601.38
2019-04-03T23:00:12.335Z,95594.61
2019-04-03T23:02:39.741Z,95590.03
2019-04-03T23:05:07.270Z,95593.22
2019-04-03T23:07:34.674Z,95592.26
2019-04-03T23:10:02.082Z,95584.81
2019-04-03T23:12:29.583Z,95580.95
2019-04-03T23:14:56.999Z,95573.50
2019-04-03T23:17:24.393Z,95581.08
2019-04-03T23:19:52.176Z,95582.22
2019-04-03T23:22:19.242Z,95579.31
2019-04-03T23:24:46.691Z,95586.86
2019-04-03T23:27:14.090Z,95595.94
2019-04-03T23:29:41.493Z,95606.22
2019-04-03T23:32:08.896Z,95603.62
2019-04-03T23:34:36.321Z,95596.33
2019-04-03T23:37:03.731Z,95601.98
2019-04-03T23:39:31.127Z,95597.48
2019-04-03T23:41:58.526Z,95595.96
2019-04-03T23:44:25.938Z,95591.00
2019-04-03T23:46:54.229Z,95582.67
2019-04-03T23:49:22.121Z,95581.11
2019-04-03T23:51:49.527Z,95585.00
2019-04-03T23:54:16.949Z,95589.50
2019-04-03T23:56:44.785Z,95569.06
2019-04-03T23:59:13.003Z,95560.61
